Terminal Aerodrome Forecast
Issued by NWS

Home | Current Version | Previous Version | Text Only | Print | Product List | Glossary On
Versions: 1 2 3 4 5 6 7 8 9 10 11 12 13 14 15 16 17
000
FTUS46 KSEW 290541
TAFHQM
TAF
KHQM 290541Z 2906/3006 08008KT P6SM -RA OVC080
     FM291200 14012KT P6SM -RA BKN020 OVC040
     FM291500 15025G35KT 5SM -RA OVC020
     FM291800 18020G30KT P6SM -SHRA BKN025 OVC040
     FM292300 18015G25KT 5SM -RA OVC020=

USA.gov is the U.S. government's official web portal to all federal, state and local government web resources and services.